Briefing drone pour Le breuil

Rechercher une autre localisation

Conditions de vol :


Nous sommes le : Mardi 16 août 2022
Il est 01:48 UTC (03:48 LT)

Lever de soleil : 04:14 UTC (06:14 LT)
Coucher de soleil : 19:17 UTC (21:17 LT)

Météo

L'essentiel des conditions de vol

VIGILANCE MÉTÉO FRANCE - Saône-et-Loire (71)
Vigilance Jaune : Orages
CARTE TEMSI
CARTES DES FRONTS
METAR de LFLH
LFLH 151800Z AUTO 31003KT CAVOK 23/17 Q1008

Date d'émission: 15/08/2022
Heure d'émission: 18:00 UTC
Vent: 310° pour 3 KT (6 km/h)
Visibilité horizontale: > 10 km
Plafond : Plafond et visibilité OK (CAVOK)
Température: 23 °C
Point de rosée: 17 °C
Humidité: 69%
Pression (QNH): 1008 hPa
Prévision 24h pour Chalon-sur-saone (17 km)
Vent : 332° pour 1 KT (5 km/h)
Temperature Maxi: 20 °C
Temperature Min: 20 °C
Humidité : 69%
Condition : Légère pluie



Warning: count(): Parameter must be an array or an object that implements Countable in /homepages/6/d509196549/htdocs/droneoxygene/briefing.php on line 743
WEBCAM POUR LE BREUIL

Réglementation

Voler en sécurité

CARTES AERONAUTIQUE 1/500.000
CARTE AZBA (Reseau basse altitude)
CARTES VAC (LFLH)
SUP AIP




Chargement des AIP...
NOTAM (LE BREUIL + Terrain à proximité / FIR )




Chargement des NOTAMS...
CONTACT PREFECTURE 71


Avertissement : Les données mises à disposition sont indicatives. Oxygène Drone ne pourra être tenu responsable de dégâts causés aux biens et aux personnes.